EDJA

Memmingen Airport

Airport
ICAO code
EDJA
Summary
ICAO Region
EUR
ICAO Territory
Location

Memmingen,

Coordinates
47° 59' 19" N , 10° 14' 21" E
KCC
Airport CFIT
Altimeter Temperature Error Correction
Metar
Observation
EDJA 260920Z 23011KT 9999 SCT010 BKN015 BKN018 12/09 Q1009
Station
MEMMINGERBERG
Date/Time
2022-09-26 09:20:00
Wind direction
230°
Wind speed
11 kts
Lowest cloud amount
scattered clouds
Temperature
12°C
Dew point
9°C
Humidity
81%
QNH
1009 hPa
Weather condition
n/a

Description

Regional airport serving Memmingen, Germany.

Climatology

Temperate Marine climate/Oceanic climate (Köppen climate classification Cfb) - Moderately cool summer and comparatively warm winter.

Runways

Designator Length Width Surface Rops
6/24 2981 30 ASP Yes/Yes

SKYbrary Partners:

Safety knowledge contributed by: